ニース/コート・ダジュール の空港の天気 - METARとTAF

コート・ダジュール空港(ニース) ( LFMN / NCE ) - フランス ニース
飛行場実況気象(Metar)
観測時間06/03 08:00 CEST (06/03 06:00 UTC)
風向・風速北西 4m/s
視程10km以上
天気現象
なし
気温19℃
湿度64%
気圧1010hPa
METARLFMN 030600Z AUTO 32008KT CAVOK 19/12 Q1010 TEMPO BKN014
過去の天気等 Google飛行場航空写真 Wunderground天気予報

過去48時間のMETAR

飛行場予報(TAF)
発表時間: 6/03 04:00 CEST (6/03 02:00 UTC)
予報対象時間: 3日5時 CEST ~ 4日11時 CEST
風向・風速北 5m/s
視程10km以上
なし
3日5時 CEST ~ 3日7時 CEST に一時的に
風向・風速東北東 5m/s
3日6時 CEST ~ 3日9時 CEST に 確率 30% で一時的に
全天の8割程度の雲 雲底高度 430m
3日10時 CEST ~ 3日13時 CEST に徐々に
風向・風速南南西 6m/s
3日13時 CEST ~ 3日20時 CEST に一時的に
少しの積乱雲 雲底高度 1830m
3日22時 CEST ~ 4日1時 CEST に徐々に
風向・風速不定 2m/s
4日5時 CEST ~ 4日11時 CEST に一時的に
視程4000m
天気現象しゅう雨
全天の8割程度の雲 雲底高度 430m
全天の8割程度の塔状積雲 雲底高度 910m
4日9時 CEST ~ 4日11時 CEST に 確率 40% で一時的に
視程1000m
天気現象雷雨
全天の8割程度の雲 雲底高度 300m
全天の8割程度の積乱雲 雲底高度 610m
TAF LFMN 030200Z 0303/0409 35010KT CAVOK
TEMPO 0303/0305 06010KT
PROB30 TEMPO 0304/0307 BKN014
BECMG 0308/0311 20012KT
TEMPO 0311/0318 FEW060CB
BECMG 0320/0323 VRB04KT
TEMPO 0403/0409 4000 SHRA BKN014 BKN030TCU
PROB40 TEMPO 0407/0409 1000 TSRA BKN010 BKN020CB